sensor_id;sensor_type;location;lat;lon;timestamp;temperature;humidity
12164;DHT22;6145;50.192;10.064;2023-11-19T11:32:21;12.80;99.90
12164;DHT22;6145;50.192;10.064;2023-11-19T11:35:12;12.80;99.90
12164;DHT22;6145;50.192;10.064;2023-11-19T11:37:47;12.90;99.90
12164;DHT22;6145;50.192;10.064;2023-11-19T11:40:18;13.10;99.90
12164;DHT22;6145;50.192;10.064;2023-11-19T11:42:45;13.00;99.90
12164;DHT22;6145;50.192;10.064;2023-11-19T11:45:13;13.00;99.90
12164;DHT22;6145;50.192;10.064;2023-11-19T11:48:15;13.20;99.90
12164;DHT22;6145;50.192;10.064;2023-11-19T11:50:53;13.10;99.90
12164;DHT22;6145;50.192;10.064;2023-11-19T11:53:25;13.10;99.90
12164;DHT22;6145;50.192;10.064;2023-11-19T11:55:58;13.10;99.90
12164;DHT22;6145;50.192;10.064;2023-11-19T11:58:35;13.10;99.90
12164;DHT22;6145;50.192;10.064;2023-11-19T12:01:05;13.20;99.90
12164;DHT22;6145;50.192;10.064;2023-11-19T12:03:46;13.20;99.90
12164;DHT22;6145;50.192;10.064;2023-11-19T12:06:13;13.20;99.90
12164;DHT22;6145;50.192;10.064;2023-11-19T12:08:41;13.20;99.90
12164;DHT22;6145;50.192;10.064;2023-11-19T12:11:07;13.20;99.90
12164;DHT22;6145;50.192;10.064;2023-11-19T12:13:52;13.20;99.90
12164;DHT22;6145;50.192;10.064;2023-11-19T12:16:19;13.20;99.90
12164;DHT22;6145;50.192;10.064;2023-11-19T12:19:04;13.10;99.90
12164;DHT22;6145;50.192;10.064;2023-11-19T12:21:32;13.30;99.90
12164;DHT22;6145;50.192;10.064;2023-11-19T12:24:03;13.20;99.90
12164;DHT22;6145;50.192;10.064;2023-11-19T12:26:39;13.30;99.90
12164;DHT22;6145;50.192;10.064;2023-11-19T12:29:06;13.30;99.90
12164;DHT22;6145;50.192;10.064;2023-11-19T12:31:33;13.30;99.80
12164;DHT22;6145;50.192;10.064;2023-11-19T12:34:10;13.30;99.50
12164;DHT22;6145;50.192;10.064;2023-11-19T12:36:39;13.40;99.60
12164;DHT22;6145;50.192;10.064;2023-11-19T12:39:07;13.50;99.70
12164;DHT22;6145;50.192;10.064;2023-11-19T12:41:49;13.40;99.40
12164;DHT22;6145;50.192;10.064;2023-11-19T12:44:16;13.40;99.20
12164;DHT22;6145;50.192;10.064;2023-11-19T12:46:43;13.80;99.20
12164;DHT22;6145;50.192;10.064;2023-11-19T12:49:12;13.60;98.90
12164;DHT22;6145;50.192;10.064;2023-11-19T12:51:39;14.60;98.90
12164;DHT22;6145;50.192;10.064;2023-11-19T12:54:06;13.60;98.60
12164;DHT22;6145;50.192;10.064;2023-11-19T12:56:33;13.30;98.40
12164;DHT22;6145;50.192;10.064;2023-11-19T12:59:10;13.30;98.30
12164;DHT22;6145;50.192;10.064;2023-11-19T13:01:38;13.30;98.40
12164;DHT22;6145;50.192;10.064;2023-11-19T13:04:17;13.30;98.20
12164;DHT22;6145;50.192;10.064;2023-11-19T13:06:45;13.30;98.20
12164;DHT22;6145;50.192;10.064;2023-11-19T13:09:21;13.30;97.90
12164;DHT22;6145;50.192;10.064;2023-11-19T13:11:48;13.40;97.90
12164;DHT22;6145;50.192;10.064;2023-11-19T13:14:15;13.50;97.40
12164;DHT22;6145;50.192;10.064;2023-11-19T13:16:42;13.30;97.10
12164;DHT22;6145;50.192;10.064;2023-11-19T13:19:11;13.30;97.20
12164;DHT22;6145;50.192;10.064;2023-11-19T13:21:39;13.30;97.00
12164;DHT22;6145;50.192;10.064;2023-11-19T13:24:06;13.30;97.00
12164;DHT22;6145;50.192;10.064;2023-11-19T13:26:33;13.40;97.20
12164;DHT22;6145;50.192;10.064;2023-11-19T13:29:00;13.40;97.40
12164;DHT22;6145;50.192;10.064;2023-11-19T13:31:28;13.40;97.20
12164;DHT22;6145;50.192;10.064;2023-11-19T13:33:55;13.30;97.20
12164;DHT22;6145;50.192;10.064;2023-11-19T13:36:23;14.50;97.30
12164;DHT22;6145;50.192;10.064;2023-11-19T13:38:53;13.30;96.80
12164;DHT22;6145;50.192;10.064;2023-11-19T13:41:24;13.30;97.00
12164;DHT22;6145;50.192;10.064;2023-11-19T13:43:51;13.30;97.00
12164;DHT22;6145;50.192;10.064;2023-11-19T13:46:18;13.90;97.40
12164;DHT22;6145;50.192;10.064;2023-11-19T13:48:45;13.30;96.90
12164;DHT22;6145;50.192;10.064;2023-11-19T13:51:14;13.20;97.00
12164;DHT22;6145;50.192;10.064;2023-11-19T13:53:40;13.40;96.90
12164;DHT22;6145;50.192;10.064;2023-11-19T13:56:10;13.20;96.60
12164;DHT22;6145;50.192;10.064;2023-11-19T13:58:37;13.20;96.50
12164;DHT22;6145;50.192;10.064;2023-11-19T14:01:06;13.10;96.30
12164;DHT22;6145;50.192;10.064;2023-11-19T14:03:32;13.70;96.90
12164;DHT22;6145;50.192;10.064;2023-11-19T14:05:59;13.10;96.30
12164;DHT22;6145;50.192;10.064;2023-11-19T14:08:26;13.00;96.00
12164;DHT22;6145;50.192;10.064;2023-11-19T14:10:53;13.00;96.20
12164;DHT22;6145;50.192;10.064;2023-11-19T14:13:23;12.90;95.80
12164;DHT22;6145;50.192;10.064;2023-11-19T14:15:50;12.90;95.80
12164;DHT22;6145;50.192;10.064;2023-11-19T14:18:17;12.80;95.50
12164;DHT22;6145;50.192;10.064;2023-11-19T14:20:44;12.80;95.60
12164;DHT22;6145;50.192;10.064;2023-11-19T14:23:11;12.80;95.60
12164;DHT22;6145;50.192;10.064;2023-11-19T14:25:38;12.80;95.60
12164;DHT22;6145;50.192;10.064;2023-11-19T14:28:05;12.70;95.50
12164;DHT22;6145;50.192;10.064;2023-11-19T14:30:33;12.60;95.40
12164;DHT22;6145;50.192;10.064;2023-11-19T14:33:00;13.90;96.10
12164;DHT22;6145;50.192;10.064;2023-11-19T14:35:28;12.60;95.60
12164;DHT22;6145;50.192;10.064;2023-11-19T14:37:58;12.50;95.70
12164;DHT22;6145;50.192;10.064;2023-11-19T14:40:25;12.50;95.80
12164;DHT22;6145;50.192;10.064;2023-11-19T14:42:51;12.50;95.90
12164;DHT22;6145;50.192;10.064;2023-11-19T14:45:18;12.50;96.00
12164;DHT22;6145;50.192;10.064;2023-11-19T14:47:46;12.50;96.00
12164;DHT22;6145;50.192;10.064;2023-11-19T14:50:13;12.40;96.10
12164;DHT22;6145;50.192;10.064;2023-11-19T14:52:40;12.40;96.10
12164;DHT22;6145;50.192;10.064;2023-11-19T14:55:08;13.30;96.70
12164;DHT22;6145;50.192;10.064;2023-11-19T14:57:37;12.30;96.30
12164;DHT22;6145;50.192;10.064;2023-11-19T15:00:05;12.90;96.60
12164;DHT22;6145;50.192;10.064;2023-11-19T15:02:39;12.30;96.50
12164;DHT22;6145;50.192;10.064;2023-11-19T15:05:08;12.30;96.60
12164;DHT22;6145;50.192;10.064;2023-11-19T15:07:36;12.20;96.60
12164;DHT22;6145;50.192;10.064;2023-11-19T15:10:04;12.20;96.70
12164;DHT22;6145;50.192;10.064;2023-11-19T15:12:34;12.10;96.90
12164;DHT22;6145;50.192;10.064;2023-11-19T15:15:06;12.20;97.10
12164;DHT22;6145;50.192;10.064;2023-11-19T15:17:33;12.10;97.10
12164;DHT22;6145;50.192;10.064;2023-11-19T15:20:01;12.10;97.10
12164;DHT22;6145;50.192;10.064;2023-11-19T15:22:29;12.10;97.30
12164;DHT22;6145;50.192;10.064;2023-11-19T15:24:56;12.10;97.20
12164;DHT22;6145;50.192;10.064;2023-11-19T15:27:23;12.10;97.30
12164;DHT22;6145;50.192;10.064;2023-11-19T15:29:50;12.00;97.20
12164;DHT22;6145;50.192;10.064;2023-11-19T15:32:18;13.10;97.50
12164;DHT22;6145;50.192;10.064;2023-11-19T15:34:45;11.90;97.00
12164;DHT22;6145;50.192;10.064;2023-11-19T15:37:11;11.90;97.10
12164;DHT22;6145;50.192;10.064;2023-11-19T15:39:42;11.90;96.90
12164;DHT22;6145;50.192;10.064;2023-11-19T15:42:09;12.00;96.80
12164;DHT22;6145;50.192;10.064;2023-11-19T15:44:37;11.90;96.50
12164;DHT22;6145;50.192;10.064;2023-11-19T15:47:04;11.80;96.40
12164;DHT22;6145;50.192;10.064;2023-11-19T15:49:31;11.80;96.20
12164;DHT22;6145;50.192;10.064;2023-11-19T15:51:58;11.90;96.30
12164;DHT22;6145;50.192;10.064;2023-11-19T15:54:25;11.80;96.00
12164;DHT22;6145;50.192;10.064;2023-11-19T15:56:53;11.80;95.80
12164;DHT22;6145;50.192;10.064;2023-11-19T15:59:20;11.80;95.70
12164;DHT22;6145;50.192;10.064;2023-11-19T16:01:47;11.80;95.70
12164;DHT22;6145;50.192;10.064;2023-11-19T16:04:14;11.80;95.40
12164;DHT22;6145;50.192;10.064;2023-11-19T21:34:31;10.70;96.90
12164;DHT22;6145;50.192;10.064;2023-11-19T21:36:58;10.70;97.00
12164;DHT22;6145;50.192;10.064;2023-11-19T21:39:25;10.70;97.00
12164;DHT22;6145;50.192;10.064;2023-11-19T21:45:46;10.80;97.20
12164;DHT22;6145;50.192;10.064;2023-11-19T21:48:13;10.80;97.40
12164;DHT22;6145;50.192;10.064;2023-11-19T21:50:45;10.70;97.50
12164;DHT22;6145;50.192;10.064;2023-11-19T21:53:12;10.80;97.80
12164;DHT22;6145;50.192;10.064;2023-11-19T21:55:54;10.70;98.00
12164;DHT22;6145;50.192;10.064;2023-11-19T21:58:21;10.80;98.30
12164;DHT22;6145;50.192;10.064;2023-11-19T22:00:49;10.70;98.40
12164;DHT22;6145;50.192;10.064;2023-11-19T22:03:20;10.70;98.60
12164;DHT22;6145;50.192;10.064;2023-11-19T22:05:50;11.30;99.00
12164;DHT22;6145;50.192;10.064;2023-11-19T22:08:17;10.70;98.90
12164;DHT22;6145;50.192;10.064;2023-11-19T22:10:44;10.70;99.00
12164;DHT22;6145;50.192;10.064;2023-11-19T22:13:18;10.70;99.10
12164;DHT22;6145;50.192;10.064;2023-11-19T22:15:45;10.70;99.10
12164;DHT22;6145;50.192;10.064;2023-11-19T22:18:15;10.80;99.20
12164;DHT22;6145;50.192;10.064;2023-11-19T22:20:42;10.70;99.20
12164;DHT22;6145;50.192;10.064;2023-11-19T22:23:11;11.60;99.60
12164;DHT22;6145;50.192;10.064;2023-11-19T22:25:38;10.80;99.30
12164;DHT22;6145;50.192;10.064;2023-11-19T22:28:05;10.90;99.30
12164;DHT22;6145;50.192;10.064;2023-11-19T22:30:31;11.30;99.60
12164;DHT22;6145;50.192;10.064;2023-11-19T22:32:58;10.70;99.20
12164;DHT22;6145;50.192;10.064;2023-11-19T22:35:25;10.80;99.70
12164;DHT22;6145;50.192;10.064;2023-11-19T22:37:52;10.80;99.30
12164;DHT22;6145;50.192;10.064;2023-11-19T22:40:20;10.80;99.30
12164;DHT22;6145;50.192;10.064;2023-11-19T22:42:47;10.80;99.30
12164;DHT22;6145;50.192;10.064;2023-11-19T22:45:14;11.30;99.50
12164;DHT22;6145;50.192;10.064;2023-11-19T22:47:42;10.90;99.30
12164;DHT22;6145;50.192;10.064;2023-11-19T22:50:09;10.90;99.30
12164;DHT22;6145;50.192;10.064;2023-11-19T22:52:36;10.90;99.40
12164;DHT22;6145;50.192;10.064;2023-11-19T22:55:04;10.90;99.40
12164;DHT22;6145;50.192;10.064;2023-11-19T22:57:33;10.90;99.40
12164;DHT22;6145;50.192;10.064;2023-11-19T22:59:59;10.90;99.30
12164;DHT22;6145;50.192;10.064;2023-11-19T23:02:28;11.20;99.50
12164;DHT22;6145;50.192;10.064;2023-11-19T23:04:55;10.90;99.20
12164;DHT22;6145;50.192;10.064;2023-11-19T23:07:22;12.00;99.80
12164;DHT22;6145;50.192;10.064;2023-11-19T23:09:49;10.90;99.30
12164;DHT22;6145;50.192;10.064;2023-11-19T23:12:16;11.00;99.20
12164;DHT22;6145;50.192;10.064;2023-11-19T23:14:44;11.30;99.40
12164;DHT22;6145;50.192;10.064;2023-11-19T23:17:11;11.80;99.40
12164;DHT22;6145;50.192;10.064;2023-11-19T23:19:42;11.00;99.00
12164;DHT22;6145;50.192;10.064;2023-11-19T23:22:09;11.00;99.00
12164;DHT22;6145;50.192;10.064;2023-11-19T23:24:35;11.10;99.00
12164;DHT22;6145;50.192;10.064;2023-11-19T23:27:03;11.10;98.90
12164;DHT22;6145;50.192;10.064;2023-11-19T23:29:30;11.10;98.90
12164;DHT22;6145;50.192;10.064;2023-11-19T23:31:58;11.10;98.70
12164;DHT22;6145;50.192;10.064;2023-11-19T23:34:24;11.10;98.80
12164;DHT22;6145;50.192;10.064;2023-11-19T23:36:52;11.10;98.70
12164;DHT22;6145;50.192;10.064;2023-11-19T23:39:19;11.10;98.60
12164;DHT22;6145;50.192;10.064;2023-11-19T23:41:45;11.20;98.60
12164;DHT22;6145;50.192;10.064;2023-11-19T23:44:19;11.20;98.50
12164;DHT22;6145;50.192;10.064;2023-11-19T23:46:46;11.30;98.50
12164;DHT22;6145;50.192;10.064;2023-11-19T23:49:14;11.30;98.40
12164;DHT22;6145;50.192;10.064;2023-11-19T23:51:42;11.20;98.20
12164;DHT22;6145;50.192;10.064;2023-11-19T23:54:09;12.10;98.60
12164;DHT22;6145;50.192;10.064;2023-11-19T23:56:36;11.20;98.30
12164;DHT22;6145;50.192;10.064;2023-11-19T23:59:03;11.30;98.10
